Time;durP1;ratioP1;P1;durP2;ratioP2;P2;SDS_P1;SDS_P2;PMS_P1;PMS_P2;Temp;Humidity;BMP_temperature;BMP_pressure;BME280_temperature;BME280_humidity;BME280_pressure;Samples;Min_cycle;Max_cycle;Signal;HPM_P1;HPM_P2
2021/01/08 00:01:58;;;;;;;18.33;11.68;;;4.20;94.20;;;4.25;78.86;100030.66;4976045;28;20070;-82
2021/01/08 00:04:25;;;;;;;19.40;12.27;;;4.20;94.50;;;4.22;78.86;100023.72;4976498;28;20058;-82
2021/01/08 00:06:56;;;;;;;19.02;11.77;;;4.30;94.50;;;4.19;78.41;100026.75;4975986;28;20094;-82
2021/01/08 00:09:23;;;;;;;17.92;11.30;;;4.20;94.30;;;4.17;78.75;100023.38;4975877;28;20074;-82
2021/01/08 00:11:56;;;;;;;19.38;12.02;;;4.40;94.60;;;4.21;78.88;100030.13;4975005;28;20077;-82
2021/01/08 00:14:23;;;;;;;18.73;11.07;;;4.30;94.60;;;4.27;79.11;100025.97;4975878;28;20137;-82
2021/01/08 00:16:49;;;;;;;17.30;11.23;;;4.30;94.60;;;4.27;78.66;100031.34;4975976;28;20074;-82
2021/01/08 00:19:16;;;;;;;18.67;11.27;;;4.40;94.60;;;4.23;78.34;100032.69;4975818;28;20090;-82
2021/01/08 00:21:44;;;;;;;19.38;11.25;;;4.20;94.40;;;4.19;78.42;100032.13;4975862;28;20242;-82
2021/01/08 00:24:13;;;;;;;16.70;10.75;;;4.20;94.30;;;4.15;78.69;100033.44;4974572;28;20038;-82
2021/01/08 00:26:41;;;;;;;19.73;11.57;;;4.20;94.40;;;4.26;78.87;100040.44;4975468;28;20134;-82
2021/01/08 00:29:08;;;;;;;17.83;10.88;;;4.20;94.60;;;4.27;78.60;100036.75;4976294;28;20073;-82
2021/01/08 00:31:37;;;;;;;16.52;10.52;;;4.20;94.40;;;4.22;78.18;100037.19;4976201;28;20061;-82
2021/01/08 00:34:06;;;;;;;16.75;10.77;;;4.20;94.50;;;4.23;78.63;100035.38;4975652;28;20121;-82
2021/01/08 00:36:33;;;;;;;17.92;10.50;;;4.20;94.50;;;4.21;78.48;100038.22;4976218;28;20058;-82
2021/01/08 00:39:00;;;;;;;16.08;10.32;;;4.10;94.50;;;4.14;78.48;100034.44;4975673;28;20134;-82
2021/01/08 00:41:33;;;;;;;18.13;10.07;;;4.10;94.20;;;4.13;78.48;100034.59;4975827;28;20077;-82
2021/01/08 00:44:00;;;;;;;15.50;9.57;;;4.10;94.20;;;4.07;78.67;100041.44;4975742;28;20789;-82
2021/01/08 00:46:32;;;;;;;14.55;9.38;;;4.10;93.90;;;4.03;78.79;100042.75;4975568;28;20062;-82
2021/01/08 00:48:59;;;;;;;15.55;10.35;;;4.10;94.00;;;4.06;77.94;100034.38;4975082;28;20054;-82
2021/01/08 00:51:27;;;;;;;15.75;9.32;;;4.10;94.10;;;4.09;78.35;100034.03;4958360;28;20058;-82
2021/01/08 00:53:54;;;;;;;14.95;9.68;;;4.00;93.80;;;4.09;77.72;100034.03;4958463;28;20411;-82
2021/01/08 00:56:22;;;;;;;14.20;9.00;;;4.00;94.00;;;4.09;78.22;100034.91;4975587;28;20062;-82
2021/01/08 00:58:54;;;;;;;16.17;9.77;;;4.10;94.10;;;4.10;77.94;100031.22;4957906;28;20046;-82
2021/01/08 01:01:21;;;;;;;15.77;9.90;;;4.00;94.10;;;4.04;78.42;100045.28;4975964;28;20089;-82
2021/01/08 01:03:49;;;;;;;15.05;9.40;;;4.00;94.20;;;4.02;78.08;100043.75;4975212;28;20074;-82
2021/01/08 01:06:22;;;;;;;16.05;9.88;;;4.00;94.30;;;3.99;78.31;100044.91;4957952;28;20062;-82
2021/01/08 01:08:49;;;;;;;15.40;9.50;;;4.00;94.10;;;3.94;78.71;100044.53;4975236;28;20046;-83
2021/01/08 01:11:17;;;;;;;14.57;9.27;;;3.90;94.30;;;3.91;78.29;100042.13;4975357;28;20144;-82
2021/01/08 01:13:45;;;;;;;18.55;9.35;;;4.00;94.30;;;3.91;79.17;100040.28;4975243;28;20067;-82
2021/01/08 01:16:13;;;;;;;15.98;9.55;;;4.00;94.40;;;3.91;78.89;100042.97;4974804;28;20138;-82
2021/01/08 01:18:39;;;;;;;15.52;9.38;;;3.90;94.50;;;3.92;78.96;100043.81;4974907;28;20062;-82
2021/01/08 01:21:06;;;;;;;15.38;9.43;;;3.90;94.50;;;3.92;78.68;100050.06;4975081;28;20066;-82
2021/01/08 01:23:33;;;;;;;15.75;10.15;;;3.90;94.50;;;4.00;78.51;100048.44;4977974;28;20067;-82
2021/01/08 01:26:00;;;;;;;16.50;9.98;;;3.90;94.60;;;3.97;78.07;100051.44;4979053;28;20085;-82
2021/01/08 01:28:26;;;;;;;17.63;11.10;;;3.90;94.50;;;3.98;78.45;100054.00;4978943;28;20062;-82
2021/01/08 01:30:53;;;;;;;16.90;10.45;;;3.90;94.50;;;3.96;78.22;100052.44;4979445;28;20070;-82
2021/01/08 01:33:21;;;;;;;17.35;10.30;;;3.90;94.30;;;3.95;78.57;100056.16;4979304;28;20133;-82
2021/01/08 01:35:48;;;;;;;16.25;10.50;;;3.90;94.50;;;4.07;78.40;100060.28;4978426;28;20227;-82
2021/01/08 01:38:15;;;;;;;17.52;10.68;;;3.90;94.70;;;4.00;78.03;100059.19;4978631;28;20106;-82
2021/01/08 01:40:42;;;;;;;18.67;11.05;;;3.90;94.60;;;3.94;78.44;100065.19;4979177;28;20134;-82
2021/01/08 01:43:08;;;;;;;18.27;11.57;;;3.90;94.50;;;3.92;78.66;100059.97;4981811;28;20117;-82
2021/01/08 01:45:35;;;;;;;19.98;12.18;;;3.90;94.60;;;4.05;78.36;100064.97;4979613;28;20158;-82
2021/01/08 01:48:03;;;;;;;18.55;11.65;;;3.90;94.80;;;4.04;78.44;100068.69;4979320;28;20062;-82
2021/01/08 01:50:31;;;;;;;18.10;11.73;;;3.90;94.80;;;4.03;78.42;100065.13;4979814;28;20550;-82
2021/01/08 01:52:57;;;;;;;20.42;12.02;;;4.00;94.60;;;4.00;78.51;100061.88;4979822;28;20043;-82
2021/01/08 01:55:25;;;;;;;20.50;12.05;;;3.90;94.70;;;4.02;78.28;100066.16;4979121;28;20073;-82
2021/01/08 01:57:53;;;;;;;18.33;11.70;;;3.90;94.70;;;3.95;78.80;100069.59;4978752;28;20743;-82
2021/01/08 02:00:21;;;;;;;18.42;11.80;;;3.90;94.80;;;3.97;78.56;100067.59;4978513;28;20042;-82
2021/01/08 02:02:54;;;;;;;17.00;11.07;;;3.90;94.70;;;3.96;78.75;100066.75;4978572;28;20078;-82
2021/01/08 02:05:22;;;;;;;17.42;11.10;;;3.90;94.80;;;4.05;78.68;100063.13;4978161;28;20488;-82
2021/01/08 02:07:58;;;;;;;18.15;11.32;;;3.90;95.00;;;3.98;78.74;100069.28;4978241;28;20126;-82
2021/01/08 02:10:28;;;;;;;18.33;11.55;;;3.90;95.00;;;3.96;78.41;100065.91;4978704;28;20039;-82
2021/01/08 02:13:00;;;;;;;21.63;10.90;;;4.00;94.90;;;4.01;78.88;100069.81;4978440;28;20133;-82
2021/01/08 02:15:29;;;;;;;19.50;12.55;;;3.90;95.10;;;4.03;78.76;100075.91;4978001;28;20078;-82
2021/01/08 02:17:56;;;;;;;19.42;11.27;;;4.00;95.10;;;4.01;78.75;100071.69;4978281;28;20134;-82
2021/01/08 02:20:26;;;;;;;20.02;12.25;;;4.10;95.10;;;3.97;78.56;100067.59;4978222;28;20074;-82
2021/01/08 02:23:01;;;;;;;19.50;12.30;;;4.00;95.10;;;3.92;79.24;100071.59;4978367;28;20137;-82
2021/01/08 02:25:30;;;;;;;21.67;12.95;;;3.90;95.00;;;3.98;79.10;100077.34;4977881;28;20050;-82
2021/01/08 02:28:23;;;;;;;22.75;13.43;;;4.00;95.10;;;4.01;79.05;100077.06;4978277;28;20711;-82
2021/01/08 02:30:52;;;;;;;21.98;13.35;;;4.00;95.20;;;4.04;79.19;100080.28;4978187;28;20043;-82
2021/01/08 02:33:20;;;;;;;23.42;13.82;;;4.00;95.40;;;4.02;78.75;100081.47;4978114;28;20493;-82
2021/01/08 02:35:50;;;;;;;21.33;13.18;;;4.00;95.20;;;3.97;79.38;100083.75;4976867;28;20047;-82
2021/01/08 02:38:21;;;;;;;23.73;14.60;;;4.00;95.20;;;3.99;79.05;100087.97;4977686;28;20828;-82
2021/01/08 02:40:52;;;;;;;27.80;14.82;;;4.00;95.10;;;4.03;79.36;100080.44;4977509;28;20055;-82
2021/01/08 02:43:24;;;;;;;24.92;14.40;;;4.00;95.30;;;4.03;79.29;100088.53;4977614;28;20057;-82
2021/01/08 02:45:52;;;;;;;25.35;15.70;;;4.00;95.20;;;4.00;79.15;100084.31;4977605;28;20088;-82
2021/01/08 02:48:19;;;;;;;28.00;15.18;;;4.00;95.20;;;4.03;79.22;100083.97;4977664;28;20066;-82
2021/01/08 02:50:47;;;;;;;28.63;16.67;;;4.00;95.20;;;4.06;79.33;100082.84;4977951;28;20070;-82
2021/01/08 02:53:16;;;;;;;29.50;16.90;;;4.00;95.30;;;4.05;79.27;100083.81;4977498;28;20061;-82
2021/01/08 02:56:01;;;;;;;28.63;16.63;;;4.00;95.40;;;3.99;79.86;100085.28;4977704;28;20653;-82
2021/01/08 02:58:29;;;;;;;29.77;16.30;;;4.10;95.70;;;3.96;79.46;100084.75;4977873;28;20133;-82
2021/01/08 03:00:58;;;;;;;28.83;16.58;;;4.10;95.30;;;4.11;79.44;100099.38;4977411;28;20047;-82
2021/01/08 03:03:27;;;;;;;29.48;16.48;;;4.10;95.40;;;4.10;79.15;100097.69;4977366;28;20047;-82
2021/01/08 03:05:57;;;;;;;29.05;16.58;;;4.10;95.50;;;4.06;79.84;100091.75;4976749;28;20078;-82
2021/01/08 03:08:25;;;;;;;31.35;16.52;;;4.10;95.60;;;4.16;79.38;100091.69;4977473;28;20051;-82
2021/01/08 03:10:52;;;;;;;29.67;16.15;;;4.10;95.80;;;4.10;79.54;100100.38;4977802;28;20046;-82
2021/01/08 03:13:20;;;;;;;30.63;16.92;;;4.10;95.80;;;4.11;79.08;100096.66;4976517;28;20549;-82
2021/01/08 03:15:47;;;;;;;27.88;15.68;;;4.10;95.70;;;4.04;79.29;100095.63;4976534;28;20034;-82
2021/01/08 03:18:13;;;;;;;30.50;16.75;;;4.10;95.60;;;4.03;79.64;100100.13;4977142;28;20039;-82
2021/01/08 03:20:40;;;;;;;28.45;16.02;;;4.10;95.60;;;4.04;79.54;100099.16;4977039;28;20054;-82
2021/01/08 03:23:08;;;;;;;29.55;16.77;;;4.10;95.60;;;4.06;79.29;100099.00;4977068;28;20050;-82
2021/01/08 03:25:35;;;;;;;29.15;16.48;;;4.10;95.60;;;3.99;79.56;100097.91;4976368;28;20051;-82
2021/01/08 03:28:01;;;;;;;27.52;15.57;;;4.10;95.40;;;4.02;79.84;100097.63;4976892;28;20043;-82
2021/01/08 03:30:29;;;;;;;24.30;14.15;;;4.10;95.50;;;4.04;79.62;100092.91;4976866;28;20066;-82
2021/01/08 03:32:56;;;;;;;28.35;14.95;;;4.10;95.50;;;3.99;80.06;100092.53;4976863;28;20070;-82
2021/01/08 03:35:22;;;;;;;26.08;15.40;;;4.10;95.50;;;3.99;80.31;100103.28;4976642;28;20043;-82
2021/01/08 03:37:49;;;;;;;28.67;15.60;;;4.10;95.50;;;4.00;80.25;100097.75;4977077;28;20133;-82
2021/01/08 03:40:16;;;;;;;26.15;14.93;;;4.10;95.50;;;4.01;80.39;100098.59;4977180;28;20468;-82
2021/01/08 03:42:43;;;;;;;25.67;14.90;;;4.10;95.60;;;3.96;80.55;100093.69;4976466;28;20078;-82
2021/01/08 03:45:10;;;;;;;25.85;14.40;;;4.10;95.50;;;4.02;80.37;100098.44;4979233;28;20077;-82
2021/01/08 03:47:38;;;;;;;26.10;14.70;;;4.10;95.60;;;4.03;79.91;100101.97;4975704;28;20134;-82
2021/01/08 03:50:06;;;;;;;25.83;14.48;;;4.10;95.60;;;3.98;80.27;100098.91;4977323;28;20573;-82
2021/01/08 03:52:33;;;;;;;26.75;15.20;;;4.10;95.50;;;4.01;79.90;100102.13;4976368;28;20507;-82
2021/01/08 03:55:00;;;;;;;29.15;16.08;;;4.10;95.40;;;4.03;79.83;100104.69;4977129;28;20106;-82
2021/01/08 03:57:26;;;;;;;26.17;15.05;;;4.10;95.60;;;4.00;80.45;100097.75;4976893;28;20107;-82
2021/01/08 03:59:53;;;;;;;24.92;14.02;;;4.10;95.60;;;4.09;79.85;100098.66;4976630;28;20575;-82
2021/01/08 04:02:20;;;;;;;28.75;13.65;;;4.10;95.70;;;4.05;79.81;100103.50;4976201;28;20137;-82
2021/01/08 04:04:48;;;;;;;26.63;15.27;;;4.10;95.60;;;4.04;80.02;100109.06;4976541;28;20073;-82
2021/01/08 04:07:14;;;;;;;25.83;14.55;;;4.10;95.50;;;4.06;79.70;100107.06;4976538;28;20571;-82
2021/01/08 04:09:41;;;;;;;27.92;14.75;;;4.10;95.40;;;4.11;79.48;100110.13;4976339;28;20066;-82
2021/01/08 04:12:09;;;;;;;25.83;14.43;;;4.10;95.50;;;4.20;79.69;100116.47;4959262;28;20133;-82
2021/01/08 04:14:35;;;;;;;27.30;14.65;;;4.10;95.70;;;4.12;79.30;100111.84;4976368;28;20137;-82
2021/01/08 04:17:02;;;;;;;25.90;13.73;;;4.10;95.40;;;4.06;79.81;100109.78;4975560;28;20081;-82
2021/01/08 04:19:29;;;;;;;22.83;13.77;;;4.10;95.50;;;4.05;79.92;100102.69;4976040;28;20054;-82
2021/01/08 04:21:56;;;;;;;25.20;14.30;;;4.10;95.50;;;4.06;79.83;100104.38;4976533;28;20130;-82
2021/01/08 04:24:23;;;;;;;27.15;14.38;;;4.10;95.50;;;4.13;80.04;100116.22;4976423;28;20134;-82
2021/01/08 04:26:50;;;;;;;25.52;14.35;;;4.10;95.50;;;4.14;79.69;100111.69;4975979;28;20051;-82
2021/01/08 04:29:17;;;;;;;25.00;13.90;;;4.10;95.60;;;4.10;79.50;100116.53;4976178;28;20126;-82
2021/01/08 04:31:43;;;;;;;22.25;12.98;;;4.10;95.50;;;4.13;79.35;100115.38;4976083;28;20070;-82
2021/01/08 04:34:10;;;;;;;22.48;12.90;;;4.10;95.40;;;4.06;79.62;100116.00;4976566;28;20074;-82
2021/01/08 04:36:37;;;;;;;24.33;13.63;;;4.10;95.30;;;4.08;79.14;100113.16;4975892;28;20049;-82
2021/01/08 04:39:05;;;;;;;24.33;13.40;;;4.10;95.10;;;4.09;79.63;100114.84;4975808;28;20077;-82
2021/01/08 04:41:35;;;;;;;25.05;13.80;;;4.10;95.40;;;4.06;79.46;100116.00;4975651;28;20085;-82
2021/01/08 04:44:02;;;;;;;23.60;13.18;;;4.20;95.30;;;4.07;79.36;100116.81;4975750;28;20038;-82
2021/01/08 04:46:31;;;;;;;25.58;13.93;;;4.10;95.40;;;4.02;79.67;100120.00;4975272;28;20138;-82
2021/01/08 04:49:01;;;;;;;24.10;13.27;;;4.20;95.30;;;3.95;80.07;100128.84;4975754;28;20146;-82
2021/01/08 04:51:30;;;;;;;23.95;14.25;;;4.10;95.20;;;4.00;79.73;100126.50;4975225;28;20422;-82
2021/01/08 04:53:57;;;;;;;25.88;13.55;;;4.10;95.30;;;4.00;79.84;100122.00;4975486;28;20121;-82
2021/01/08 04:56:29;;;;;;;27.70;13.68;;;4.10;95.40;;;3.99;80.48;100124.84;4974971;28;20644;-82
2021/01/08 04:58:56;;;;;;;24.33;13.57;;;4.20;95.40;;;4.09;79.60;100120.22;4974389;28;20086;-82
2021/01/08 05:01:22;;;;;;;24.90;13.52;;;4.10;95.70;;;4.11;80.00;100123.59;4975448;28;20043;-82
2021/01/08 05:03:49;;;;;;;24.60;14.18;;;4.10;95.80;;;4.12;79.62;100125.31;4975919;28;20133;-82
2021/01/08 05:06:16;;;;;;;24.17;13.88;;;4.10;95.80;;;4.17;80.22;100122.16;4975118;28;20051;-82
2021/01/08 05:08:43;;;;;;;24.80;14.02;;;4.10;95.80;;;4.14;79.58;100123.31;4975510;28;20041;-82
2021/01/08 05:11:23;;;;;;;23.10;13.07;;;4.10;95.90;;;4.09;80.11;100121.09;4975353;28;20137;-82
2021/01/08 05:13:56;;;;;;;26.75;13.63;;;4.20;95.80;;;4.07;79.94;100127.59;4975306;28;20050;-82
2021/01/08 05:16:25;;;;;;;21.70;13.02;;;4.20;95.80;;;4.07;80.29;100130.28;4975236;28;20039;-82
2021/01/08 05:18:54;;;;;;;23.15;12.35;;;4.10;95.90;;;4.14;80.43;100127.84;4974339;28;20230;-82
2021/01/08 05:21:24;;;;;;;21.48;12.27;;;4.10;96.00;;;4.17;79.89;100128.41;4975385;28;20054;-82
2021/01/08 05:23:52;;;;;;;21.35;11.90;;;4.20;96.00;;;4.20;79.82;100128.06;4975063;28;20137;-82
2021/01/08 05:26:19;;;;;;;18.30;10.88;;;4.20;96.00;;;4.22;80.01;100142.22;4974794;28;20078;-82
2021/01/08 05:28:51;;;;;;;16.40;9.55;;;4.20;96.00;;;4.23;79.39;100133.16;4975318;28;20110;-82
2021/01/08 05:31:20;;;;;;;16.23;9.68;;;4.20;95.90;;;4.24;80.42;100139.41;4975027;28;20073;-82
2021/01/08 05:33:49;;;;;;;15.02;9.13;;;4.20;95.90;;;4.29;79.61;100137.94;4975307;28;20448;-82
2021/01/08 05:36:17;;;;;;;14.55;8.75;;;4.20;96.20;;;4.22;80.06;100134.16;4974550;28;20072;-82
2021/01/08 05:38:47;;;;;;;15.02;8.70;;;4.30;96.10;;;4.23;80.26;100143.94;4974858;28;20049;-82
2021/01/08 05:41:14;;;;;;;14.90;8.80;;;4.20;95.80;;;4.23;79.65;100138.56;4975158;28;20094;-82
2021/01/08 05:43:42;;;;;;;16.50;8.65;;;4.30;95.90;;;4.21;79.61;100139.72;4977581;28;20613;-82
2021/01/08 05:46:11;;;;;;;15.52;8.95;;;4.30;95.80;;;4.21;79.88;100147.81;4974877;28;20499;-82
2021/01/08 05:48:42;;;;;;;15.38;9.13;;;4.30;95.70;;;4.24;79.62;100145.63;4974955;28;20051;-82
2021/01/08 05:51:13;;;;;;;12.93;7.93;;;4.30;95.80;;;4.26;79.56;100146.31;4975066;28;20101;-82
2021/01/08 05:53:42;;;;;;;14.55;8.50;;;4.30;95.70;;;4.31;79.40;100149.41;4974889;28;20047;-82
2021/01/08 05:56:15;;;;;;;13.75;7.65;;;4.30;95.70;;;4.26;79.78;100154.38;4974910;28;20049;-82
2021/01/08 05:58:43;;;;;;;13.07;7.80;;;4.30;95.70;;;4.34;79.50;100150.09;4974933;28;20419;-82
2021/01/08 06:01:10;;;;;;;12.98;7.57;;;4.30;95.70;;;4.34;79.42;100150.97;4974828;28;20086;-82
2021/01/08 06:03:40;;;;;;;13.85;7.75;;;4.30;95.70;;;4.41;78.80;100160.09;4974613;28;20043;-82
2021/01/08 06:06:07;;;;;;;11.27;6.97;;;4.30;95.50;;;4.45;78.56;100156.09;4974491;28;20081;-82
2021/01/08 06:08:38;;;;;;;10.68;6.43;;;4.30;95.20;;;4.39;78.80;100158.56;4975347;28;20066;-82
2021/01/08 06:11:07;;;;;;;12.77;7.38;;;4.30;95.20;;;4.37;78.61;100155.19;4978278;28;20731;-82
2021/01/08 06:13:35;;;;;;;10.95;6.43;;;4.30;95.20;;;4.34;78.52;100153.66;4978312;28;20051;-82
2021/01/08 06:16:04;;;;;;;13.27;7.43;;;4.30;95.30;;;4.26;78.86;100161.63;4978311;28;20186;-82
2021/01/08 06:18:37;;;;;;;12.27;7.13;;;4.30;95.40;;;4.22;79.17;100161.09;4978494;28;20153;-82
2021/01/08 06:21:07;;;;;;;11.30;6.60;;;4.30;95.30;;;4.25;79.16;100157.25;4978162;28;20039;-83
2021/01/08 06:23:36;;;;;;;10.65;5.57;;;4.20;95.10;;;4.29;79.42;100167.56;4978792;28;20050;-82
2021/01/08 06:26:04;;;;;;;11.40;6.43;;;4.30;95.20;;;4.27;78.91;100158.78;4977517;28;20069;-82
2021/01/08 06:28:36;;;;;;;10.15;5.88;;;4.20;94.90;;;4.18;79.20;100166.94;4978212;28;20066;-82
2021/01/08 06:31:19;;;;;;;12.18;5.95;;;4.30;95.10;;;4.18;79.50;100172.34;4978849;28;20093;-82
2021/01/08 06:33:54;;;;;;;11.32;6.10;;;4.30;95.30;;;4.19;79.11;100164.09;4977884;28;20129;-82
2021/01/08 06:36:24;;;;;;;10.13;5.72;;;4.20;95.00;;;4.15;79.68;100172.63;4977990;28;20050;-82
2021/01/08 06:38:53;;;;;;;9.15;5.70;;;4.20;95.00;;;4.23;79.56;100170.88;4978000;28;20066;-82
2021/01/08 06:41:20;;;;;;;12.13;6.15;;;4.20;95.20;;;4.26;79.15;100175.09;4977618;28;20051;-82
2021/01/08 06:43:55;;;;;;;9.85;6.07;;;4.20;95.30;;;4.21;79.21;100172.88;4977525;28;20120;-82
2021/01/08 06:46:34;;;;;;;11.68;5.70;;;4.20;95.30;;;4.13;79.41;100182.69;4977379;28;20074;-82
2021/01/08 06:49:04;;;;;;;11.55;6.10;;;4.20;95.30;;;4.22;79.55;100179.94;4977240;28;20147;-82
2021/01/08 06:51:33;;;;;;;10.75;6.05;;;4.20;95.30;;;4.31;79.11;100189.81;4978198;28;20499;-82
2021/01/08 06:54:03;;;;;;;9.05;5.40;;;4.20;95.40;;;4.22;79.17;100182.63;4978277;28;20058;-82
2021/01/08 06:56:36;;;;;;;8.00;4.95;;;4.20;95.20;;;4.20;79.30;100198.09;4977286;28;20122;-82
2021/01/08 06:59:06;;;;;;;9.43;5.22;;;4.20;95.30;;;4.16;79.74;100201.25;4977778;28;20047;-82
2021/01/08 07:01:52;;;;;;;7.65;4.32;;;4.20;95.30;;;4.18;79.32;100205.50;4977137;28;20074;-82
2021/01/08 07:04:22;;;;;;;10.35;5.22;;;4.20;95.20;;;4.19;79.26;100201.81;4977109;28;20098;-82
2021/01/08 07:06:51;;;;;;;9.18;4.78;;;4.20;95.40;;;4.17;79.33;100208.31;4976549;28;20155;-82
2021/01/08 07:09:18;;;;;;;10.73;4.93;;;4.20;95.20;;;4.20;79.24;100214.25;4977842;28;20527;-82
2021/01/08 07:11:54;;;;;;;9.65;4.82;;;4.20;95.10;;;4.26;79.22;100213.66;4977191;28;20500;-82
2021/01/08 07:14:24;;;;;;;9.25;5.28;;;4.20;95.10;;;4.26;79.18;100213.66;4976925;28;20043;-82
2021/01/08 07:16:55;;;;;;;8.65;4.60;;;4.20;95.20;;;4.27;78.61;100225.28;4976844;28;20039;-82
2021/01/08 07:19:24;;;;;;;8.20;4.68;;;4.20;95.00;;;4.22;79.34;100228.41;4977123;28;20598;-82
2021/01/08 07:21:55;;;;;;;9.10;4.95;;;4.20;95.10;;;4.22;79.50;100235.66;4977786;28;20078;-82
2021/01/08 07:24:27;;;;;;;9.20;5.17;;;4.20;95.10;;;4.22;78.87;100239.19;4977280;28;20579;-82
2021/01/08 07:26:54;;;;;;;8.32;4.57;;;4.20;95.10;;;4.30;79.39;100242.00;4976939;28;20496;-80
2021/01/08 07:29:28;;;;;;;7.13;4.22;;;4.20;95.10;;;4.26;78.93;100239.75;4976238;28;20144;-79
2021/01/08 07:31:57;;;;;;;8.55;4.07;;;4.20;95.20;;;4.19;79.33;100242.22;4974820;28;20558;-82
2021/01/08 07:34:34;;;;;;;8.35;4.70;;;4.20;95.10;;;4.24;78.77;100241.75;4977626;28;20487;-81
2021/01/08 07:37:03;;;;;;;8.55;4.88;;;4.20;95.20;;;4.33;79.17;100257.00;4975258;28;20115;-80
2021/01/08 07:39:47;;;;;;;9.10;4.38;;;4.20;95.40;;;4.25;78.84;100255.06;4975628;28;20043;-80
2021/01/08 07:42:34;;;;;;;7.88;4.72;;;4.20;95.30;;;4.31;78.91;100254.47;4975672;28;20050;-80
2021/01/08 07:45:02;;;;;;;8.43;4.38;;;4.20;95.40;;;4.25;79.15;100265.00;4976216;28;20491;-81
2021/01/08 07:47:30;;;;;;;10.38;5.00;;;4.30;95.70;;;4.30;79.52;100263.56;4975401;28;20047;-81
2021/01/08 07:50:13;;;;;;;9.07;4.72;;;4.30;95.80;;;4.29;79.50;100269.09;4975145;28;20047;-81
2021/01/08 07:52:43;;;;;;;8.52;4.50;;;4.20;95.60;;;4.27;79.68;100266.53;4975949;28;20038;-81
2021/01/08 07:55:11;;;;;;;10.00;4.80;;;4.20;95.70;;;4.26;79.91;100278.28;4958283;28;20047;-81
2021/01/08 07:58:06;;;;;;;11.57;5.00;;;4.20;95.80;;;4.24;79.52;100285.69;4975302;28;20058;-81
2021/01/08 08:00:34;;;;;;;9.30;4.60;;;4.30;95.90;;;4.26;80.00;100282.84;4975532;28;20042;-80
2021/01/08 08:03:01;;;;;;;8.98;5.15;;;4.30;95.90;;;4.29;79.46;100291.47;4974858;28;20541;-80
2021/01/08 08:05:31;;;;;;;10.50;4.43;;;4.30;95.80;;;4.33;79.83;100296.59;4975326;28;20059;-80
2021/01/08 08:08:01;;;;;;;7.50;4.28;;;4.30;95.80;;;4.30;79.47;100295.00;4975442;28;20070;-81
2021/01/08 08:10:31;;;;;;;12.10;4.90;;;4.30;95.80;;;4.32;79.41;100298.41;4975216;28;20038;-80
2021/01/08 08:12:58;;;;;;;10.93;4.30;;;4.30;96.00;;;4.35;79.48;100299.97;4975139;28;20098;-79
2021/01/08 08:15:25;;;;;;;7.97;4.63;;;4.30;95.80;;;4.37;79.64;100301.50;4992107;28;20173;-79
2021/01/08 08:17:52;;;;;;;8.57;4.10;;;4.30;95.80;;;4.39;79.43;100304.06;4989742;28;20043;-80
2021/01/08 08:20:20;;;;;;;7.63;4.32;;;4.30;95.80;;;4.39;79.54;100304.91;4983328;28;20069;-79
2021/01/08 08:22:47;;;;;;;8.43;4.57;;;4.30;95.80;;;4.42;79.43;100311.84;4993633;28;20060;-79
2021/01/08 08:25:28;;;;;;;8.70;4.95;;;4.40;95.90;;;4.44;79.63;100310.69;4993417;28;20057;-79
2021/01/08 08:27:57;;;;;;;8.93;4.40;;;4.40;95.90;;;4.44;79.32;100317.94;4994335;28;20627;-80
2021/01/08 08:30:26;;;;;;;8.93;4.53;;;4.40;95.60;;;4.49;79.63;100321.88;4992988;28;20092;-80
2021/01/08 08:32:53;;;;;;;7.57;4.15;;;4.40;95.90;;;4.52;79.54;100315.34;4961394;28;20141;-80
2021/01/08 08:35:20;;;;;;;7.90;4.30;;;4.40;95.80;;;4.52;79.50;100326.13;4977618;28;20066;-80
2021/01/08 08:37:52;;;;;;;7.47;4.15;;;4.40;95.90;;;4.54;79.40;100329.50;4987528;28;20510;-80
2021/01/08 08:40:24;;;;;;;10.25;4.22;;;4.40;96.00;;;4.55;79.38;100325.81;4981802;28;20050;-80
2021/01/08 08:42:53;;;;;;;6.90;4.15;;;4.50;96.00;;;4.62;79.63;100326.88;4993613;28;20054;-80
2021/01/08 08:45:22;;;;;;;7.80;3.95;;;4.50;96.20;;;4.62;79.21;100332.28;4994289;28;20709;-80
2021/01/08 08:47:52;;;;;;;6.70;3.90;;;4.50;96.10;;;4.58;79.27;100335.44;4993190;28;20121;-80
2021/01/08 08:50:19;;;;;;;6.53;4.00;;;4.50;95.50;;;4.62;78.64;100337.66;4993222;28;20039;-79
2021/01/08 08:52:47;;;;;;;7.55;4.22;;;4.40;95.40;;;4.59;78.81;100347.91;4977235;28;20043;-79
2021/01/08 08:55:31;;;;;;;7.03;4.28;;;4.50;95.50;;;4.58;79.02;100336.28;4992011;28;20069;-79
2021/01/08 08:58:06;;;;;;;7.30;4.32;;;4.50;95.60;;;4.64;79.07;100345.63;4991416;28;20062;-79
2021/01/08 09:00:34;;;;;;;7.45;4.10;;;4.50;95.60;;;4.65;79.27;100353.56;4993246;28;20053;-79
2021/01/08 09:03:14;;;;;;;9.80;4.80;;;4.50;95.80;;;4.63;79.21;100346.63;4993836;28;20042;-79
2021/01/08 09:05:42;;;;;;;7.93;4.32;;;4.50;95.90;;;4.62;79.52;100353.84;4992353;28;20050;-79
2021/01/08 09:08:19;;;;;;;10.45;5.10;;;4.50;96.10;;;4.58;79.35;100346.22;4993355;28;20552;-79
2021/01/08 09:10:58;;;;;;;8.32;4.65;;;4.60;96.10;;;4.56;79.84;100354.44;4991300;28;20038;-79
2021/01/08 09:13:50;;;;;;;7.93;4.55;;;4.60;96.00;;;4.60;79.68;100353.16;4973831;28;20054;-79
2021/01/08 09:16:26;;;;;;;8.02;4.30;;;4.60;96.00;;;4.58;79.45;100352.44;4973910;28;20050;-79
2021/01/08 09:19:03;;;;;;;8.02;3.92;;;4.60;95.70;;;4.58;79.50;100363.22;4990690;28;20338;-79
2021/01/08 09:21:34;;;;;;;5.78;3.53;;;4.60;95.70;;;4.67;79.16;100365.03;4993371;28;20129;-80
2021/01/08 09:24:02;;;;;;;;;;;4.60;95.70;;;4.68;79.05;100371.25;4956938;28;20058;-78
2021/01/08 09:26:31;;;;;;;9.98;3.70;;;4.60;95.70;;;4.65;79.77;100368.88;4982179;28;19988;-79
2021/01/08 09:28:59;;;;;;;5.93;3.28;;;4.60;95.80;;;4.67;79.31;100372.28;4988144;28;20047;-80
2021/01/08 09:31:39;;;;;;;6.82;3.90;;;4.60;95.70;;;4.63;79.23;100366.34;4974705;28;20533;-79
2021/01/08 09:34:06;;;;;;;8.05;4.00;;;4.70;95.70;;;4.70;79.06;100375.53;4977718;28;20146;-79
2021/01/08 09:36:35;;;;;;;7.57;4.30;;;4.60;95.20;;;4.69;78.91;100381.91;4992744;28;20049;-79
2021/01/08 09:39:05;;;;;;;8.32;4.10;;;4.60;95.00;;;4.73;79.18;100381.63;4990968;28;20298;-78
2021/01/08 09:41:35;;;;;;;7.13;4.60;;;4.60;95.50;;;4.71;79.24;100387.16;4975453;28;20069;-79
2021/01/08 09:44:04;;;;;;;9.80;4.72;;;4.70;95.80;;;4.75;78.87;100385.84;4997159;28;20038;-79
2021/01/08 09:46:31;;;;;;;10.68;4.60;;;4.60;95.70;;;4.75;79.21;100385.00;4994615;28;20042;-79
2021/01/08 09:49:06;;;;;;;9.00;4.38;;;4.60;95.60;;;4.77;79.11;100394.63;4960803;28;20052;-79
2021/01/08 09:51:33;;;;;;;7.82;4.80;;;4.60;95.40;;;4.77;79.16;100396.47;4978674;28;20049;-79
2021/01/08 09:54:00;;;;;;;6.97;3.83;;;4.70;95.80;;;4.83;79.00;100399.41;4980961;28;20042;-79
2021/01/08 09:56:27;;;;;;;8.70;4.68;;;4.70;95.60;;;4.79;78.93;100397.19;4997283;28;20050;-79
2021/01/08 09:59:15;;;;;;;8.68;4.40;;;4.70;95.70;;;4.77;79.32;100401.88;4996873;28;20387;-79
2021/01/08 10:01:54;;;;;;;6.80;4.25;;;4.70;95.80;;;4.82;79.21;100396.91;4991859;28;20117;-79
2021/01/08 10:04:32;;;;;;;9.50;4.30;;;4.70;95.80;;;4.78;79.49;100396.34;4993897;28;20051;-79
2021/01/08 10:07:01;;;;;;;10.35;4.90;;;4.80;95.80;;;4.84;79.07;100402.97;4993114;28;20066;-79
2021/01/08 10:09:43;;;;;;;7.57;4.50;;;4.70;95.80;;;4.84;79.43;100400.28;4997071;28;20529;-79
2021/01/08 10:12:11;;;;;;;9.55;4.75;;;4.80;96.00;;;4.81;79.01;100401.41;4997188;28;20075;-79
2021/01/08 10:14:39;;;;;;;9.15;4.78;;;4.80;95.60;;;4.83;79.43;100399.41;4996720;28;20571;-79
2021/01/08 10:17:14;;;;;;;9.88;4.82;;;4.80;95.60;;;4.80;79.30;100404.28;4979312;28;20046;-79
2021/01/08 10:19:43;;;;;;;9.15;4.95;;;4.80;95.60;;;4.80;79.88;100405.13;4994659;28;20038;-79
2021/01/08 10:22:10;;;;;;;9.77;5.30;;;4.80;95.50;;;4.84;79.17;100405.69;4994993;28;20042;-79
2021/01/08 10:24:37;;;;;;;9.00;5.00;;;4.80;95.50;;;4.85;79.03;100407.34;4996573;28;20410;-79
2021/01/08 10:27:05;;;;;;;7.60;4.78;;;4.80;95.30;;;4.86;79.46;100407.22;4996748;28;20047;-80
2021/01/08 10:29:38;;;;;;;7.05;4.47;;;4.80;95.50;;;4.90;79.48;100415.84;4988924;28;20062;-80